Time;durP1;ratioP1;P1;durP2;ratioP2;P2;SDS_P1;SDS_P2;PMS_P1;PMS_P2;Temp;Humidity;BMP_temperature;BMP_pressure;BME280_temperature;BME280_humidity;BME280_pressure;Samples;Min_cycle;Max_cycle;Signal;HPM_P1;HPM_P2
2023/04/01 00:01:24;;;;;;;12.25;6.40;;;6.60;99.90;;;;;;5075916;28;20078;-49
2023/04/01 00:03:51;;;;;;;6.05;4.47;;;6.60;99.90;;;;;;5087530;28;20095;-50
2023/04/01 00:06:18;;;;;;;9.15;4.70;;;6.60;99.90;;;;;;5080785;28;20044;-49
2023/04/01 00:08:46;;;;;;;;;;;6.50;99.90;;;;;;5074075;28;20504;-50
2023/04/01 00:11:13;;;;;;;9.80;5.70;;;6.50;99.90;;;;;;5072145;28;19973;-49
2023/04/01 00:13:40;;;;;;;7.70;5.25;;;6.50;99.90;;;;;;5079485;28;20044;-50
2023/04/01 00:16:08;;;;;;;8.68;4.72;;;6.50;99.90;;;;;;5085540;28;20052;-49
2023/04/01 00:18:47;;;;;;;5.43;3.92;;;6.50;99.90;;;;;;5092981;28;20507;-51
2023/04/01 00:21:14;;;;;;;6.20;3.55;;;6.50;99.90;;;;;;5083096;28;20051;-49
2023/04/01 00:23:41;;;;;;;7.32;4.28;;;6.50;99.90;;;;;;5073486;28;20052;-51
2023/04/01 00:26:08;;;;;;;7.50;4.88;;;6.50;99.90;;;;;;5080987;28;20048;-48
2023/04/01 00:28:35;;;;;;;7.13;4.72;;;6.40;99.90;;;;;;5086051;28;20098;-50
2023/04/01 00:31:06;;;;;;;;;;;6.50;99.90;;;;;;5079774;28;20029;-50
2023/04/01 00:33:33;;;;;;;9.27;5.60;;;6.50;99.90;;;;;;5072992;28;20362;-49
2023/04/01 00:36:11;;;;;;;11.48;6.68;;;6.60;99.90;;;;;;5071519;28;20118;-50
2023/04/01 00:38:38;;;;;;;;;;;6.70;99.90;;;;;;5072968;28;20063;-50
2023/04/01 00:41:05;;;;;;;9.63;6.97;;;6.80;99.90;;;;;;5070041;28;19925;-49
2023/04/01 00:43:33;;;;;;;13.40;6.18;;;6.80;99.90;;;;;;5071398;28;20496;-50
2023/04/01 00:46:00;;;;;;;10.65;7.28;;;6.80;99.90;;;;;;5071479;28;20025;-50
2023/04/01 00:48:31;;;;;;;9.90;6.97;;;6.80;99.90;;;;;;5070373;28;20413;-51
2023/04/01 00:51:10;;;;;;;13.48;7.88;;;6.80;99.90;;;;;;5071383;28;20055;-49
2023/04/01 00:53:42;;;;;;;12.50;7.78;;;6.90;99.90;;;;;;5085310;28;20059;-49
2023/04/01 00:56:36;;;;;;;13.13;6.70;;;6.90;99.90;;;;;;5091158;28;20061;-51
2023/04/01 00:59:29;;;;;;;11.40;5.68;;;7.00;99.90;;;;;;5078515;28;20044;-50
2023/04/01 01:01:56;;;;;;;11.00;6.80;;;7.00;99.90;;;;;;5078919;28;20122;-50
2023/04/01 01:04:31;;;;;;;10.05;6.55;;;7.00;99.90;;;;;;5080875;28;20476;-49
2023/04/01 01:07:29;;;;;;;10.05;7.00;;;6.90;99.90;;;;;;5070984;28;20036;-49
2023/04/01 01:09:59;;;;;;;11.07;7.05;;;6.90;99.90;;;;;;5070695;28;20036;-50
2023/04/01 01:12:37;;;;;;;11.30;7.25;;;6.90;99.90;;;;;;5071042;28;20053;-50
2023/04/01 01:15:32;;;;;;;12.50;6.80;;;6.90;99.90;;;;;;5088674;28;20501;-49
2023/04/01 01:18:51;;;;;;;13.10;7.38;;;6.80;99.90;;;;;;5086119;28;20052;-49
2023/04/01 01:21:56;;;;;;;10.52;6.63;;;6.80;99.90;;;;;;5039970;28;20582;-49
2023/04/01 01:24:48;;;;;;;8.65;5.25;;;6.80;99.90;;;;;;5069566;28;20048;-48
2023/04/01 01:27:18;;;;;;;6.65;3.83;;;6.70;99.90;;;;;;5082971;28;20085;-49
2023/04/01 01:29:59;;;;;;;5.78;2.83;;;6.50;99.90;;;;;;5090320;28;20408;-50
2023/04/01 01:32:48;;;;;;;6.57;3.00;;;6.40;99.90;;;;;;5089729;28;20078;-53
2023/04/01 01:35:27;;;;;;;4.70;2.53;;;6.40;99.90;;;;;;5076376;28;20568;-52
2023/04/01 01:37:59;;;;;;;5.53;3.40;;;6.30;99.90;;;;;;5079072;28;20051;-50
2023/04/01 01:40:29;;;;;;;7.85;4.88;;;6.30;99.90;;;;;;5071579;28;20511;-49
2023/04/01 01:42:59;;;;;;;9.27;4.75;;;6.30;99.90;;;;;;5079591;28;20462;-49
2023/04/01 01:45:28;;;;;;;10.75;4.80;;;6.30;99.90;;;;;;5081988;28;20044;-50
2023/04/01 01:47:57;;;;;;;12.82;5.47;;;6.30;99.90;;;;;;5089443;28;20036;-51
2023/04/01 01:50:26;;;;;;;8.18;4.80;;;6.30;99.90;;;;;;5068183;28;20525;-50
2023/04/01 01:53:01;;;;;;;11.43;5.07;;;6.30;99.90;;;;;;5068645;28;20045;-50
2023/04/01 01:55:38;;;;;;;8.55;4.63;;;6.30;99.90;;;;;;5053496;28;20048;-50
2023/04/01 01:58:31;;;;;;;9.82;4.60;;;6.30;99.90;;;;;;5075827;28;20047;-49
2023/04/01 02:01:05;;;;;;;6.95;3.97;;;6.20;99.90;;;;;;5081232;28;20085;-49
2023/04/01 02:03:36;;;;;;;9.98;3.80;;;6.20;99.90;;;;;;5090710;28;20048;-50
2023/04/01 02:06:07;;;;;;;7.90;2.88;;;6.20;99.90;;;;;;5080885;28;20059;-51
2023/04/01 02:08:46;;;;;;;7.90;2.53;;;6.10;99.90;;;;;;5069908;28;20090;-49
2023/04/01 02:11:18;;;;;;;4.95;2.63;;;6.10;99.90;;;;;;5067939;28;20135;-49
2023/04/01 02:14:07;;;;;;;5.40;2.42;;;6.10;99.90;;;;;;5070474;28;20148;-49
2023/04/01 02:16:40;;;;;;;9.82;3.10;;;6.00;99.90;;;;;;5074191;28;20493;-49
2023/04/01 02:19:10;;;;;;;5.50;3.50;;;6.10;99.90;;;;;;5069388;28;20048;-49
2023/04/01 02:21:39;;;;;;;14.95;8.27;;;6.10;99.90;;;;;;5068798;28;20048;-50
2023/04/01 02:24:11;;;;;;;18.67;9.10;;;6.20;99.90;;;;;;5075366;28;20041;-50
2023/04/01 02:26:39;;;;;;;21.23;12.52;;;6.30;99.90;;;;;;5089089;28;20043;-54
2023/04/01 02:29:09;;;;;;;20.50;12.55;;;6.40;99.90;;;;;;5088938;28;20817;-49
2023/04/01 02:31:36;;;;;;;21.13;11.65;;;6.50;99.90;;;;;;5075477;28;20563;-49
2023/04/01 02:34:04;;;;;;;19.90;11.80;;;6.50;99.90;;;;;;5092752;28;20086;-54
2023/04/01 02:41:22;;;;;;;14.23;9.82;;;6.60;99.90;;;;;;5087919;28;20376;-55
2023/04/01 02:43:49;;;;;;;15.15;9.32;;;6.60;99.90;;;;;;5080155;28;20479;-51
2023/04/01 02:46:16;;;;;;;9.77;4.05;;;6.60;99.90;;;;;;5088720;28;20094;-50
2023/04/01 02:48:44;;;;;;;4.15;2.88;;;6.50;99.90;;;;;;5078738;28;20127;-52
2023/04/01 02:51:10;;;;;;;5.55;2.80;;;6.40;99.90;;;;;;5110839;28;20454;-51
2023/04/01 02:53:37;;;;;;;8.68;2.63;;;6.40;99.90;;;;;;5092365;28;20047;-50
2023/04/01 02:56:04;;;;;;;5.10;3.13;;;6.40;99.90;;;;;;5090514;28;20047;-51
2023/04/01 02:58:31;;;;;;;3.60;2.50;;;6.30;99.90;;;;;;5101272;28;20047;-51
2023/04/01 03:00:57;;;;;;;8.00;4.00;;;6.40;99.90;;;;;;5104136;28;20036;-51
2023/04/01 03:03:24;;;;;;;8.15;4.28;;;6.30;99.90;;;;;;5110544;28;20500;-51
2023/04/01 03:05:51;;;;;;;8.30;4.63;;;6.30;99.90;;;;;;5088169;28;20047;-51
2023/04/01 03:08:18;;;;;;;8.88;5.07;;;6.40;99.90;;;;;;5110011;28;20396;-51
2023/04/01 03:10:45;;;;;;;11.35;5.80;;;6.40;99.90;;;;;;5092462;28;20537;-51
2023/04/01 03:13:11;;;;;;;10.63;5.63;;;6.40;99.90;;;;;;5105465;28;20032;-54
2023/04/01 03:15:38;;;;;;;6.47;3.20;;;6.40;99.90;;;;;;5073464;28;20044;-54
2023/04/01 03:18:05;;;;;;;12.40;3.78;;;6.40;99.90;;;;;;5098562;28;20040;-52
2023/04/01 03:20:32;;;;;;;5.18;2.65;;;6.30;99.90;;;;;;5089723;28;20051;-53
2023/04/01 03:22:58;;;;;;;3.03;2.30;;;6.20;99.90;;;;;;5071485;28;20048;-50
2023/04/01 03:25:28;;;;;;;3.58;1.88;;;6.20;99.90;;;;;;5090658;28;20038;-53
2023/04/01 03:27:55;;;;;;;5.85;2.70;;;6.10;99.90;;;;;;5091582;28;20078;-52
2023/04/01 03:30:22;;;;;;;3.92;2.30;;;6.10;99.90;;;;;;5110565;28;20115;-52
2023/04/01 03:32:50;;;;;;;2.95;1.50;;;6.20;99.90;;;;;;5086164;28;20427;-52
2023/04/01 03:35:17;;;;;;;2.92;2.17;;;6.20;99.90;;;;;;5102361;28;20035;-50
2023/04/01 03:37:45;;;;;;;7.10;3.38;;;6.20;99.90;;;;;;5090816;28;20101;-54
2023/04/01 03:40:12;;;;;;;4.88;2.60;;;6.20;99.90;;;;;;5092678;28;20134;-52
2023/04/01 03:42:39;;;;;;;8.70;2.95;;;6.20;99.90;;;;;;5087133;28;20504;-52
2023/04/01 03:45:06;;;;;;;9.07;2.55;;;6.20;99.90;;;;;;5092790;28;20047;-51
2023/04/01 03:47:33;;;;;;;;;;;6.20;99.90;;;;;;5089752;28;20470;-51
2023/04/01 03:50:00;;;;;;;7.40;4.10;;;6.10;99.90;;;;;;5114064;28;19920;-53
2023/04/01 03:52:26;;;;;;;16.80;8.13;;;6.10;99.90;;;;;;5103832;28;20135;-52
2023/04/01 03:54:53;;;;;;;13.63;7.72;;;6.20;99.90;;;;;;5095457;28;20556;-51
2023/04/01 03:57:20;;;;;;;14.35;6.93;;;6.30;99.90;;;;;;5094400;28;20043;-52
2023/04/01 03:59:47;;;;;;;12.98;7.65;;;6.30;99.90;;;;;;5107360;28;20035;-52
2023/04/01 04:02:14;;;;;;;7.25;3.67;;;6.30;99.90;;;;;;5095001;28;20070;-50
2023/04/01 04:04:42;;;;;;;8.25;4.85;;;6.30;99.90;;;;;;5090661;28;20044;-51
2023/04/01 04:07:09;;;;;;;21.45;10.43;;;6.30;99.90;;;;;;5094038;28;20043;-52
2023/04/01 04:09:56;;;;;;;17.35;9.23;;;6.30;99.90;;;;;;5113681;28;20048;-50
2023/04/01 04:12:22;;;;;;;7.75;3.53;;;6.30;99.90;;;;;;5095477;28;20043;-54
2023/04/01 04:14:49;;;;;;;6.93;2.47;;;6.30;99.90;;;;;;5106588;28;20442;-52
2023/04/01 04:17:29;;;;;;;13.35;6.47;;;6.10;99.90;;;;;;5084346;28;20063;-53
2023/04/01 04:19:56;;;;;;;5.78;3.22;;;6.20;99.90;;;;;;5072955;28;20088;-53
2023/04/01 04:22:22;;;;;;;6.10;3.75;;;6.10;99.90;;;;;;5086922;28;20036;-53
2023/04/01 04:24:49;;;;;;;10.98;5.40;;;6.10;99.90;;;;;;5092256;28;20051;-50
2023/04/01 04:27:29;;;;;;;9.93;5.22;;;6.10;99.90;;;;;;4994077;28;20128;-51
2023/04/01 04:30:06;;;;;;;8.20;4.28;;;6.10;99.90;;;;;;5010847;28;20042;-53
2023/04/01 04:32:33;;;;;;;12.77;7.40;;;6.00;99.90;;;;;;4992512;28;20042;-51
2023/04/01 04:35:00;;;;;;;8.57;4.13;;;6.00;99.90;;;;;;5007942;28;20046;-51
2023/04/01 04:37:28;;;;;;;5.22;2.40;;;6.00;99.90;;;;;;5019175;28;20053;-52
2023/04/01 04:39:55;;;;;;;4.20;1.65;;;6.00;99.90;;;;;;5027783;28;20488;-51
2023/04/01 04:42:22;;;;;;;1.95;1.27;;;6.00;99.90;;;;;;5015669;28;20060;-51
2023/04/01 04:44:52;;;;;;;4.25;1.17;;;5.90;99.90;;;;;;4998527;28;20042;-55
2023/04/01 04:47:19;;;;;;;3.08;1.02;;;5.90;99.90;;;;;;4999949;28;20034;-55
2023/04/01 04:49:46;;;;;;;2.58;1.10;;;6.00;99.90;;;;;;5009182;28;20093;-54
2023/04/01 04:52:13;;;;;;;2.15;1.25;;;6.00;99.90;;;;;;5004659;28;20463;-53
2023/04/01 04:54:40;;;;;;;3.75;1.38;;;6.00;99.90;;;;;;5004322;28;20037;-55
2023/04/01 04:57:06;;;;;;;2.10;1.42;;;5.90;99.90;;;;;;5093109;23;20075;-52
2023/04/01 04:59:40;;;;;;;3.42;1.95;;;5.90;99.90;;;;;;5081619;28;20089;-50
2023/04/01 05:02:27;;;;;;;5.68;2.38;;;6.00;99.90;;;;;;5105282;28;20054;-52
2023/04/01 05:04:54;;;;;;;4.28;2.20;;;6.00;99.90;;;;;;5091211;28;20101;-51
2023/04/01 05:07:28;;;;;;;5.28;2.03;;;6.10;99.90;;;;;;5075757;28;20119;-51
2023/04/01 05:09:55;;;;;;;2.75;1.60;;;6.20;99.90;;;;;;5069389;28;20040;-52
2023/04/01 05:12:22;;;;;;;2.85;1.48;;;6.20;99.90;;;;;;5065228;28;20032;-52
2023/04/01 05:15:03;;;;;;;4.88;2.83;;;6.20;99.90;;;;;;5097657;28;20076;-54
2023/04/01 05:17:30;;;;;;;7.90;2.85;;;6.20;99.90;;;;;;5022143;28;20045;-53
2023/04/01 05:19:57;;;;;;;8.13;2.92;;;6.20;99.90;;;;;;5027656;28;20038;-50
2023/04/01 05:22:25;;;;;;;7.60;3.40;;;6.30;99.90;;;;;;4994797;28;20441;-56
2023/04/01 05:24:52;;;;;;;;;;;6.30;99.90;;;;;;4995946;28;20038;-53
2023/04/01 05:27:19;;;;;;;8.60;4.00;;;6.40;99.90;;;;;;5039588;28;19928;-55
2023/04/01 05:29:46;;;;;;;8.02;3.50;;;6.50;99.90;;;;;;5041019;28;20040;-51
2023/04/01 05:32:32;;;;;;;7.28;3.03;;;6.50;99.90;;;;;;5031596;28;20136;-55
2023/04/01 05:35:00;;;;;;;;;;;6.50;99.90;;;;;;5015990;28;20120;-52
2023/04/01 05:37:26;;;;;;;8.90;3.67;;;6.50;99.90;;;;;;5032842;28;19929;-52
2023/04/01 05:39:54;;;;;;;4.43;2.75;;;6.60;99.90;;;;;;5038368;28;20041;-53
2023/04/01 05:42:21;;;;;;;6.85;3.30;;;6.70;99.90;;;;;;5036707;28;20037;-51
2023/04/01 05:44:47;;;;;;;8.55;4.63;;;6.70;99.90;;;;;;5013810;28;20076;-50
2023/04/01 05:47:37;;;;;;;8.63;3.80;;;6.80;99.90;;;;;;5020232;28;20061;-53
2023/04/01 05:50:04;;;;;;;11.02;5.15;;;6.90;99.90;;;;;;5038327;28;20456;-52
2023/04/01 05:52:31;;;;;;;9.73;4.93;;;7.00;99.90;;;;;;5047852;28;20153;-51
2023/04/01 05:55:00;;;;;;;11.73;5.50;;;7.00;99.90;;;;;;5038221;28;20055;-57
2023/04/01 05:57:26;;;;;;;12.27;7.00;;;7.00;99.90;;;;;;5024393;28;20038;-51
2023/04/01 05:59:54;;;;;;;10.52;6.13;;;7.00;99.90;;;;;;5020131;28;20073;-51
2023/04/01 06:02:22;;;;;;;10.63;6.47;;;7.00;99.90;;;;;;5037757;28;20057;-51
2023/04/01 06:04:49;;;;;;;;;;;7.00;99.90;;;;;;5030687;28;20069;-51
2023/04/01 06:07:18;;;;;;;11.10;4.88;;;7.10;99.90;;;;;;5033129;28;19921;-51
2023/04/01 06:09:45;;;;;;;7.60;4.32;;;7.10;99.90;;;;;;5025444;28;20038;-53
2023/04/01 06:12:37;;;;;;;7.22;3.20;;;7.10;99.90;;;;;;5022065;28;20054;-53
2023/04/01 06:15:16;;;;;;;6.90;4.60;;;7.20;99.90;;;;;;5017512;28;20061;-52
2023/04/01 06:17:45;;;;;;;7.13;4.20;;;7.30;99.90;;;;;;5030386;28;20050;-51
2023/04/01 06:20:32;;;;;;;10.07;4.70;;;7.40;99.90;;;;;;5010970;28;20053;-51
2023/04/01 06:23:19;;;;;;;7.47;4.97;;;7.50;99.90;;;;;;5028506;28;20060;-52
2023/04/01 06:26:02;;;;;;;7.03;4.15;;;7.60;99.90;;;;;;5028343;28;20044;-53
2023/04/01 06:28:43;;;;;;;6.47;3.67;;;7.80;99.90;;;;;;5024298;28;20045;-56
2023/04/01 06:31:24;;;;;;;7.25;3.17;;;7.90;99.90;;;;;;5042375;28;20409;-55
2023/04/01 06:34:13;;;;;;;4.55;3.10;;;8.00;99.90;;;;;;5019195;28;20569;-52
2023/04/01 06:36:55;;;;;;;5.97;4.40;;;8.20;99.90;;;;;;5027812;28;20038;-53
2023/04/01 06:40:04;;;;;;;6.13;3.70;;;8.30;99.90;;;;;;5024624;28;20050;-55
2023/04/01 06:42:35;;;;;;;6.13;3.47;;;8.40;99.90;;;;;;4995343;28;20056;-56
2023/04/01 06:45:22;;;;;;;7.40;3.80;;;8.40;99.90;;;;;;5010159;28;20497;-53
2023/04/01 06:48:31;;;;;;;9.13;4.28;;;8.30;99.90;;;;;;5029296;28;20407;-52
2023/04/01 06:51:17;;;;;;;;;;;8.50;99.90;;;;;;5025528;28;20048;-54
2023/04/01 06:54:24;;;;;;;7.35;5.00;;;8.30;99.90;;;;;;5027364;28;20018;-50
2023/04/01 06:57:16;;;;;;;7.75;4.80;;;8.40;99.90;;;;;;5011387;28;20445;-53
2023/04/01 06:59:44;;;;;;;10.27;5.25;;;8.50;99.90;;;;;;5023220;28;20489;-55
2023/04/01 07:02:30;;;;;;;7.85;5.20;;;8.60;99.90;;;;;;5025488;28;20045;-52
2023/04/01 07:04:58;;;;;;;15.43;7.15;;;8.90;99.90;;;;;;5018945;28;20417;-52
2023/04/01 07:07:35;;;;;;;11.40;6.10;;;9.00;99.90;;;;;;5024518;28;20045;-50
2023/04/01 07:10:22;;;;;;;9.50;6.05;;;9.10;99.90;;;;;;5027855;28;20053;-53
2023/04/01 07:13:17;;;;;;;8.48;5.40;;;9.30;99.90;;;;;;5029914;28;20056;-53
2023/04/01 07:16:05;;;;;;;7.68;4.47;;;9.30;99.90;;;;;;5012672;28;20125;-50
2023/04/01 07:18:58;;;;;;;6.72;5.00;;;9.30;99.90;;;;;;5024487;28;20049;-50
2023/04/01 07:22:16;;;;;;;9.27;4.95;;;9.40;99.90;;;;;;5013128;28;21033;-50
2023/04/01 07:25:14;;;;;;;11.15;5.32;;;9.10;99.90;;;;;;4999566;28;20042;-55
2023/04/01 07:27:44;;;;;;;10.13;5.93;;;9.10;99.90;;;;;;5046574;28;20386;-52
2023/04/01 07:30:20;;;;;;;10.27;5.63;;;9.10;99.90;;;;;;5032173;28;20419;-53
2023/04/01 07:32:51;;;;;;;9.40;5.90;;;9.00;99.90;;;;;;5030971;28;20128;-52
2023/04/01 07:35:35;;;;;;;10.27;6.72;;;9.10;99.90;;;;;;5032123;28;20053;-55
2023/04/01 07:38:46;;;;;;;11.88;6.80;;;9.10;99.90;;;;;;5029920;28;20034;-52
2023/04/01 07:41:19;;;;;;;10.00;6.70;;;9.10;99.90;;;;;;5008147;28;20038;-51
2023/04/01 07:44:06;;;;;;;9.95;6.13;;;9.10;99.90;;;;;;5031397;28;20132;-55
2023/04/01 07:46:55;;;;;;;13.00;8.30;;;9.00;99.90;;;;;;5031020;28;20401;-53
2023/04/01 07:50:04;;;;;;;10.25;6.93;;;8.90;99.90;;;;;;5022905;28;20421;-53
2023/04/01 07:53:00;;;;;;;11.70;7.32;;;8.80;99.90;;;;;;5026947;28;20041;-53
2023/04/01 07:55:47;;;;;;;12.68;8.68;;;8.80;99.90;;;;;;5011160;28;20037;-52
2023/04/01 07:58:25;;;;;;;17.20;9.27;;;8.70;99.90;;;;;;5023172;28;20468;-51
2023/04/01 08:01:06;;;;;;;10.85;6.80;;;8.80;99.90;;;;;;5027324;28;20041;-50
2023/04/01 08:04:08;;;;;;;12.10;7.00;;;8.90;99.90;;;;;;5015470;28;20049;-52
2023/04/01 08:06:42;;;;;;;11.85;6.82;;;9.00;99.90;;;;;;5027509;28;20062;-57
2023/04/01 08:09:17;;;;;;;8.48;6.53;;;9.20;99.90;;;;;;5015515;28;20037;-51
2023/04/01 08:12:34;;;;;;;5.15;3.10;;;9.30;99.90;;;;;;5030704;28;20049;-55
2023/04/01 08:16:07;;;;;;;5.50;3.55;;;9.40;99.90;;;;;;4988843;28;20085;-55
2023/04/01 08:18:59;;;;;;;6.22;3.80;;;9.70;99.90;;;;;;5021696;28;20042;-53
2023/04/01 08:21:49;;;;;;;5.32;3.20;;;9.80;99.90;;;;;;5024239;28;20040;-52
2023/04/01 08:24:40;;;;;;;4.43;2.45;;;9.90;99.90;;;;;;5031098;28;20099;-51
2023/04/01 08:27:22;;;;;;;7.05;3.80;;;10.10;99.90;;;;;;5026531;28;20096;-51
2023/04/01 08:29:59;;;;;;;5.38;2.53;;;10.20;99.90;;;;;;5021818;28;20092;-55
2023/04/01 08:32:32;;;;;;;5.97;4.03;;;10.30;99.90;;;;;;5021752;28;20045;-52
2023/04/01 08:35:36;;;;;;;5.15;3.13;;;10.30;99.90;;;;;;5022893;28;20095;-55
2023/04/01 08:38:15;;;;;;;6.25;2.97;;;10.40;99.90;;;;;;5011638;28;20427;-52
2023/04/01 08:40:57;;;;;;;8.40;3.58;;;10.80;99.90;;;;;;5020721;28;20045;-56
2023/04/01 08:43:53;;;;;;;4.15;2.60;;;11.10;99.90;;;;;;5019249;28;20045;-51
2023/04/01 08:46:38;;;;;;;5.22;2.30;;;11.00;99.90;;;;;;5042012;22;20031;-50
2023/04/01 08:49:43;;;;;;;3.72;2.03;;;11.10;99.90;;;;;;5019645;28;20073;-52
2023/04/01 08:52:41;;;;;;;3.25;1.90;;;11.10;99.90;;;;;;5062922;28;20051;-52
2023/04/01 08:55:46;;;;;;;6.70;2.00;;;11.10;99.90;;;;;;5052593;28;20091;-52
2023/04/01 08:58:45;;;;;;;2.75;1.67;;;11.40;99.90;;;;;;5061938;28;20040;-50
2023/04/01 09:01:22;;;;;;;3.78;1.92;;;11.40;99.90;;;;;;5052227;28;20040;-50
2023/04/01 09:04:21;;;;;;;3.25;1.98;;;11.40;99.90;;;;;;5070225;28;20037;-54
2023/04/01 09:06:51;;;;;;;3.17;1.73;;;11.60;99.90;;;;;;5047348;28;20041;-51
2023/04/01 09:09:34;;;;;;;3.60;1.88;;;11.70;99.90;;;;;;5043570;28;20044;-51
2023/04/01 09:12:44;;;;;;;5.05;1.30;;;11.50;99.90;;;;;;5042630;28;20468;-53
2023/04/01 09:15:52;;;;;;;1.40;1.23;;;11.60;99.90;;;;;;5066405;28;20056;-50
2023/04/01 09:18:49;;;;;;;2.38;1.20;;;11.60;99.90;;;;;;5044127;28;20072;-52
2023/04/01 09:21:24;;;;;;;1.85;1.20;;;11.60;99.90;;;;;;5052249;28;20043;-53
2023/04/01 09:24:22;;;;;;;2.97;1.70;;;12.00;99.90;;;;;;5036816;28;20047;-50
2023/04/01 09:27:21;;;;;;;3.30;1.77;;;12.30;99.90;;;;;;5038456;28;20045;-53
2023/04/01 09:30:30;;;;;;;2.53;1.42;;;12.40;99.90;;;;;;5032582;28;20072;-54
2023/04/01 09:33:18;;;;;;;4.40;2.07;;;12.50;99.90;;;;;;5052940;28;20041;-50
2023/04/01 09:35:47;;;;;;;;;;;12.20;99.90;;;;;;5059591;28;20634;-53
2023/04/01 09:39:01;;;;;;;5.18;1.25;;;12.10;99.90;;;;;;5066693;28;20011;-51
2023/04/01 09:41:40;;;;;;;2.88;1.75;;;12.10;99.90;;;;;;5034897;28;20041;-52
2023/04/01 09:44:33;;;;;;;1.98;1.20;;;11.80;99.90;;;;;;5058825;28;20044;-54
2023/04/01 09:47:26;;;;;;;6.57;1.83;;;11.70;99.90;;;;;;5053325;28;20048;-52
2023/04/01 09:50:29;;;;;;;3.40;1.60;;;11.90;99.90;;;;;;5048737;28;20088;-50
2023/04/01 09:52:56;;;;;;;2.05;1.23;;;11.80;99.90;;;;;;5067761;28;20059;-53
2023/04/01 09:55:53;;;;;;;3.47;1.85;;;11.60;99.90;;;;;;5045983;28;20044;-54
2023/04/01 09:58:39;;;;;;;2.97;1.70;;;11.80;99.90;;;;;;5065867;28;20112;-51
2023/04/01 10:01:52;;;;;;;3.22;1.90;;;11.90;99.90;;;;;;5069493;28;20153;-51
2023/04/01 10:04:52;;;;;;;0.90;0.75;;;12.10;99.90;;;;;;5062198;28;20048;-50
2023/04/01 10:08:03;;;;;;;4.32;1.58;;;12.40;99.90;;;;;;5066197;28;20055;-51
2023/04/01 10:10:42;;;;;;;;;;;12.40;99.90;;;;;;5050079;28;20091;-52
2023/04/01 10:13:34;;;;;;;1.95;0.77;;;12.80;99.90;;;;;;5052417;28;19921;-51
2023/04/01 10:16:38;;;;;;;2.85;0.88;;;12.90;99.90;;;;;;5038510;28;20037;-53
2023/04/01 10:19:39;;;;;;;1.65;0.82;;;12.80;99.90;;;;;;5066281;28;20045;-52
2023/04/01 10:22:40;;;;;;;1.75;1.10;;;12.80;99.90;;;;;;5059294;28;20139;-52
2023/04/01 10:25:37;;;;;;;1.27;0.82;;;12.80;99.90;;;;;;5051430;28;20123;-50
2023/04/01 10:28:44;;;;;;;2.63;1.23;;;12.80;99.90;;;;;;5067851;28;20115;-51
2023/04/01 10:31:32;;;;;;;2.50;1.15;;;12.90;99.90;;;;;;5049297;28;20049;-51
2023/04/01 10:34:02;;;;;;;2.25;1.00;;;13.00;99.90;;;;;;5061159;28;20493;-51
2023/04/01 10:36:38;;;;;;;1.13;0.80;;;13.10;99.90;;;;;;5060800;28;20036;-53
2023/04/01 10:39:30;;;;;;;2.35;0.70;;;13.20;99.90;;;;;;5047151;28;20060;-50
2023/04/01 10:42:27;;;;;;;2.80;1.05;;;13.40;99.90;;;;;;5065899;28;20059;-52
2023/04/01 10:45:44;;;;;;;1.75;1.02;;;13.50;99.90;;;;;;5042669;28;20155;-51
2023/04/01 10:48:44;;;;;;;1.88;0.70;;;13.90;99.90;;;;;;5049471;28;20045;-51
2023/04/01 10:51:14;;;;;;;1.77;0.88;;;14.10;99.90;;;;;;5048172;28;20138;-52
2023/04/01 10:54:03;;;;;;;1.10;0.60;;;14.00;99.90;;;;;;5054949;28;20040;-54
2023/04/01 10:57:30;;;;;;;0.70;0.70;;;13.80;99.90;;;;;;5040808;28;20194;-51
2023/04/01 11:00:47;;;;;;;1.48;0.50;;;13.90;99.90;;;;;;5050566;28;20123;-52
2023/04/01 11:04:20;;;;;;;3.42;0.60;;;14.10;99.90;;;;;;5058385;28;20051;-52
2023/04/01 11:07:34;;;;;;;2.63;1.35;;;14.00;99.90;;;;;;5059941;28;20055;-50
2023/04/01 11:10:38;;;;;;;3.40;2.40;;;13.80;99.90;;;;;;5039575;28;20048;-51
2023/04/01 11:13:34;;;;;;;1.10;0.73;;;13.70;99.90;;;;;;5049302;28;20099;-51
2023/04/01 11:16:26;;;;;;;4.32;0.80;;;13.80;99.90;;;;;;5050007;28;20573;-50
2023/04/01 11:19:11;;;;;;;1.73;0.70;;;13.90;99.90;;;;;;5032608;28;20052;-50
2023/04/01 11:22:12;;;;;;;1.92;1.10;;;14.40;99.90;;;;;;5050853;28;20477;-51
2023/04/01 11:24:58;;;;;;;0.90;0.60;;;14.60;99.90;;;;;;5047768;28;20049;-51
2023/04/01 11:27:56;;;;;;;2.25;0.70;;;14.30;99.90;;;;;;5059891;28;20142;-51
2023/04/01 11:30:49;;;;;;;1.83;1.10;;;14.20;99.90;;;;;;5061666;28;20051;-51
2023/04/01 11:33:31;;;;;;;1.05;0.80;;;14.20;99.90;;;;;;5035868;28;20529;-50
2023/04/01 11:36:13;;;;;;;1.73;0.77;;;14.10;99.90;;;;;;5058162;28;20037;-51
2023/04/01 11:38:51;;;;;;;3.25;1.50;;;14.10;99.90;;;;;;5057127;28;20047;-52
2023/04/01 11:42:02;;;;;;;1.52;0.80;;;14.10;99.90;;;;;;5062014;28;20167;-51
2023/04/01 11:45:13;;;;;;;1.33;1.23;;;13.90;99.90;;;;;;5037335;28;20408;-52
2023/04/01 11:47:51;;;;;;;0.60;0.60;;;13.80;99.90;;;;;;5046234;28;20043;-52
2023/04/01 11:50:43;;;;;;;3.72;1.00;;;13.70;99.90;;;;;;5048911;28;20045;-50
2023/04/01 11:53:23;;;;;;;3.92;0.88;;;13.50;99.90;;;;;;5066530;28;20060;-51
2023/04/01 11:56:26;;;;;;;0.85;0.70;;;13.40;99.90;;;;;;5065982;28;20042;-50
2023/04/01 11:59:29;;;;;;;2.25;0.90;;;13.50;99.90;;;;;;5060641;28;20092;-51
2023/04/01 12:02:16;;;;;;;2.08;1.02;;;13.50;99.90;;;;;;5066410;28;20047;-52
2023/04/01 12:05:16;;;;;;;3.50;1.80;;;13.40;99.90;;;;;;5067333;28;20094;-55
2023/04/01 12:07:52;;;;;;;2.60;1.42;;;13.50;99.90;;;;;;5061529;28;20036;-51
2023/04/01 12:11:01;;;;;;;1.70;0.70;;;13.80;99.90;;;;;;5061998;28;20477;-51
2023/04/01 12:13:45;;;;;;;1.65;0.80;;;14.10;99.90;;;;;;5065470;28;20048;-51
2023/04/01 12:16:31;;;;;;;2.38;0.50;;;14.40;99.90;;;;;;5060935;28;20044;-52
2023/04/01 12:19:09;;;;;;;1.10;0.60;;;14.60;99.90;;;;;;5056881;28;20698;-51
2023/04/01 12:21:59;;;;;;;0.68;0.45;;;14.90;99.90;;;;;;5061705;28;20477;-51
2023/04/01 12:24:54;;;;;;;0.73;0.52;;;15.00;99.90;;;;;;5051244;28;20405;-52
2023/04/01 12:27:49;;;;;;;0.40;0.40;;;15.10;99.00;;;;;;5064027;28;20049;-51
2023/04/01 12:30:37;;;;;;;0.30;0.30;;;15.00;99.80;;;;;;5063081;28;20067;-51
2023/04/01 12:33:22;;;;;;;1.10;0.60;;;15.10;97.10;;;;;;5058923;28;20029;-52
2023/04/01 12:36:04;;;;;;;0.30;0.30;;;15.10;98.30;;;;;;5051965;28;20049;-51
2023/04/01 12:38:45;;;;;;;1.23;0.38;;;14.90;96.70;;;;;;5054109;28;20120;-50
2023/04/01 12:41:41;;;;;;;1.02;0.50;;;14.60;97.10;;;;;;5062391;28;20080;-52
2023/04/01 12:44:29;;;;;;;0.98;0.50;;;14.20;96.70;;;;;;5052851;28;20049;-51
2023/04/01 12:47:20;;;;;;;1.17;0.30;;;14.10;97.40;;;;;;5053884;28;20048;-51
2023/04/01 12:50:01;;;;;;;0.20;0.17;;;13.80;97.80;;;;;;5057680;28;20417;-50
2023/04/01 12:53:02;;;;;;;1.05;0.65;;;13.70;96.70;;;;;;5061465;28;20103;-53
2023/04/01 12:55:32;;;;;;;0.80;0.30;;;13.70;97.90;;;;;;5058618;28;20040;-53
2023/04/01 12:58:29;;;;;;;0.93;0.40;;;13.60;97.50;;;;;;5066473;28;20512;-50
2023/04/01 13:01:16;;;;;;;0.40;0.10;;;13.60;97.70;;;;;;5055777;28;20040;-51
2023/04/01 13:04:01;;;;;;;0.10;0.10;;;13.50;97.40;;;;;;5061442;28;20055;-53
2023/04/01 13:06:57;;;;;;;0.10;0.10;;;13.70;96.10;;;;;;5062898;28;20497;-53
2023/04/01 13:09:31;;;;;;;0.10;0.10;;;13.80;97.00;;;;;;5062374;28;20071;-52
2023/04/01 13:12:30;;;;;;;0.65;0.20;;;13.70;96.90;;;;;;5067544;28;20660;-51
2023/04/01 13:14:57;;;;;;;;;;;13.50;97.50;;;;;;4996987;28;20056;-50
2023/04/01 13:17:40;;;;;;;0.20;0.15;;;13.50;98.70;;;;;;5069377;28;19920;-50
2023/04/01 13:20:23;;;;;;;0.20;0.10;;;13.50;98.40;;;;;;5054006;28;20052;-52
2023/04/01 13:23:15;;;;;;;0.17;0.10;;;13.50;98.00;;;;;;5065452;28;20066;-52
2023/04/01 13:26:02;;;;;;;0.10;0.10;;;13.60;99.00;;;;;;5062789;28;20036;-50
2023/04/01 13:29:03;;;;;;;0.20;0.13;;;13.80;98.00;;;;;;5064080;28;20044;-51
2023/04/01 13:31:59;;;;;;;0.00;0.00;;;14.00;98.00;;;;;;5055516;28;20098;-50
2023/04/01 13:34:38;;;;;;;0.50;0.13;;;14.30;96.80;;;;;;5063470;28;20037;-50
2023/04/01 13:37:23;;;;;;;0.10;0.10;;;14.40;96.90;;;;;;5071920;28;20040;-53
2023/04/01 13:40:00;;;;;;;1.38;0.10;;;14.20;96.90;;;;;;5056210;28;20102;-49
2023/04/01 13:42:49;;;;;;;0.10;0.10;;;14.20;98.30;;;;;;5048882;28;20037;-53
2023/04/01 13:45:22;;;;;;;1.38;0.00;;;13.90;94.20;;;;;;5071453;28;20049;-51
2023/04/01 13:48:14;;;;;;;0.13;0.13;;;13.80;97.20;;;;;;5062084;28;20548;-50
2023/04/01 13:51:11;;;;;;;0.10;0.10;;;13.80;97.80;;;;;;5067463;28;20043;-51
2023/04/01 13:54:00;;;;;;;0.05;0.05;;;13.70;96.50;;;;;;5060318;28;20060;-58
2023/04/01 13:56:46;;;;;;;4.55;0.20;;;13.30;96.10;;;;;;5049218;28;20036;-56
2023/04/01 13:59:31;;;;;;;0.22;0.10;;;12.70;95.90;;;;;;5051287;28;20048;-57
2023/04/01 14:02:21;;;;;;;1.10;0.10;;;12.70;97.10;;;;;;5050392;28;20498;-56
2023/04/01 14:05:03;;;;;;;0.00;0.00;;;12.70;97.00;;;;;;5058572;28;20048;-57
2023/04/01 14:07:52;;;;;;;0.05;0.05;;;12.90;98.10;;;;;;5050848;28;20045;-56
2023/04/01 14:10:24;;;;;;;;;;;12.80;99.10;;;;;;5048402;28;20398;-57
2023/04/01 14:12:58;;;;;;;0.00;0.00;;;12.90;99.50;;;;;;5059649;28;19936;-57